| time (UTC) | temp C | wind direction | speed KPH | gust KPH | rain 1hr cm | rain 24hr cm | rain mn cm | humidity % | barometer mb |
| 20260503054503 | 14 | 355 | 0.0 | 0.0 | 0.00 | 0.00 | 0.00 | 55 | 1010.7 |
| 20260503053002 | 15 | 355 | 0.0 | 0.0 | 0.00 | 0.00 | 0.00 | 53 | 1010.7 |
| 20260503050002 | 16 | 355 | 0.0 | 0.0 | 0.00 | 0.00 | 0.00 | 51 | 1010.7 |
| 20260503044502 | 16 | 355 | 0.0 | 0.0 | 0.00 | 0.00 | 0.00 | 46 | 1010.7 |
| 20260503043007 | 17 | 355 | 0.0 | 0.0 | 0.00 | 0.00 | 0.00 | 45 | 1010.6 |
| 20260503041503 | 17 | 355 | 0.0 | 0.0 | 0.00 | 0.00 | 0.00 | 43 | 1010.4 |
| 20260503040002 | 18 | 355 | 0.0 | 3.2 | 0.00 | 0.00 | 0.00 | 42 | 1010.3 |
| 20260503034505 | 18 | 355 | 0.0 | 6.4 | 0.00 | 0.00 | 0.00 | 41 | 1010.2 |
| 20260503033002 | 19 | 355 | 0.0 | 4.8 | 0.00 | 0.00 | 0.00 | 39 | 1010.0 |
| 20260503031502 | 20 | 355 | 3.2 | 12.9 | 0.00 | 0.00 | 0.00 | 39 | 1009.9 |
| 20260503030002 | 20 | 355 | 0.0 | 4.8 | 0.00 | 0.00 | 0.00 | 38 | 1009.8 |
| 20260503024501 | 21 | 355 | 0.0 | 3.2 | 0.00 | 0.00 | 0.00 | 37 | 1009.8 |
| 20260503023004 | 21 | 355 | 0.0 | 0.0 | 0.00 | 0.00 | 0.00 | 35 | 1009.7 |
| 20260503021503 | 21 | 355 | 0.0 | 6.4 | 0.00 | 0.00 | 0.00 | 34 | 1009.6 |
| 20260503020003 | 22 | 355 | 3.2 | 8.0 | 0.00 | 0.00 | 0.00 | 33 | 1009.6 |
| 20260503014502 | 22 | 355 | 3.2 | 9.7 | 0.00 | 0.00 | 0.00 | 32 | 1009.7 |
| 20260503013004 | 22 | 355 | 4.8 | 12.9 | 0.00 | 0.00 | 0.00 | 32 | 1009.7 |
| 20260503011504 | 23 | 355 | 6.4 | 17.7 | 0.00 | 0.00 | 0.00 | 31 | 1009.6 |
| 20260503010003 | 23 | 5 | 9.7 | 24.1 | 0.00 | 0.00 | 0.00 | 28 | 1009.7 |
| 20260503004503 | 24 | 17 | 8.0 | 20.9 | 0.00 | 0.00 | 0.00 | 28 | 1009.8 |
| 20260503003001 | 24 | 355 | 9.7 | 24.1 | 0.00 | 0.00 | 0.00 | 26 | 1009.8 |
| 20260503001601 | 25 | 331 | 6.4 | 20.9 | 0.00 | 0.00 | 0.00 | 27 | 1009.8 |
| 20260503000058 | 25 | 360 | 12.9 | 27.4 | 0.00 | 0.00 | 0.00 | 26 | 1009.8 |
| 20260502234557 | 25 | 9 | 6.4 | 17.7 | 0.00 | 0.00 | 0.00 | 23 | 1010.0 |
| 20260502233102 | 25 | 84 | 0.0 | 9.7 | 0.00 | 0.00 | 0.00 | 25 | 1010.2 |
| 20260502231605 | 25 | 329 | 9.7 | 24.1 | 0.00 | 0.00 | 0.00 | 23 | 1010.4 |
| 20260502230055 | 25 | 341 | 8.0 | 17.7 | 0.00 | 0.00 | 0.00 | 25 | 1010.5 |
| 20260502224552 | 25 | 239 | 4.8 | 25.7 | 0.00 | 0.00 | 0.00 | 24 | 1010.6 |
| 20260502223050 | 25 | 275 | 8.0 | 17.7 | 0.00 | 0.00 | 0.00 | 25 | 1010.8 |
| 20260502221548 | 25 | 355 | 0.0 | 25.7 | 0.00 | 0.00 | 0.00 | 25 | 1011.0 |
| 20260502220150 | 25 | 19 | 1.6 | 17.7 | 0.00 | 0.00 | 0.00 | 27 | 1011.1 |
| 20260502214548 | 25 | 9 | 8.0 | 33.8 | 0.00 | 0.00 | 0.00 | 27 | 1011.2 |
| 20260502213046 | 25 | 332 | 4.8 | 22.5 | 0.00 | 0.00 | 0.00 | 26 | 1011.4 |
| 20260502211548 | 25 | 342 | 8.0 | 16.1 | 0.00 | 0.00 | 0.00 | 25 | 1011.5 |
| 20260502210057 | 25 | 5 | 6.4 | 30.6 | 0.00 | 0.00 | 0.00 | 25 | 1011.6 |
| 20260502204545 | 24 | 78 | 8.0 | 24.1 | 0.00 | 0.00 | 0.00 | 25 | 1011.7 |
| 20260502203046 | 25 | 40 | 8.0 | 20.9 | 0.00 | 0.00 | 0.00 | 24 | 1011.9 |
| 20260502201545 | 25 | 5 | 3.2 | 20.9 | 0.00 | 0.00 | 0.00 | 26 | 1011.9 |
| 20260502200044 | 25 | 94 | 8.0 | 19.3 | 0.00 | 0.00 | 0.00 | 23 | 1011.9 |
| 20260502194541 | 24 | 53 | 3.2 | 20.9 | 0.00 | 0.00 | 0.00 | 26 | 1012.0 |
| 20260502193038 | 23 | 134 | 17.7 | 32.2 | 0.00 | 0.00 | 0.00 | 27 | 1012.1 |
| 20260502191536 | 23 | 85 | 12.9 | 29.0 | 0.00 | 0.00 | 0.00 | 26 | 1012.3 |
| 20260502190037 | 23 | 109 | 17.7 | 25.7 | 0.00 | 0.00 | 0.00 | 30 | 1012.4 |
| 20260502184545 | 23 | 82 | 12.9 | 30.6 | 0.00 | 0.00 | 0.00 | 30 | 1012.5 |
| 20260502183034 | 23 | 117 | 6.4 | 27.4 | 0.00 | 0.00 | 0.00 | 29 | 1012.6 |
| 20260502181529 | 22 | 77 | 14.5 | 33.8 | 0.00 | 0.00 | 0.00 | 33 | 1012.7 |
| 20260502163019 | 18 | 69 | 11.3 | 30.6 | 0.00 | 0.00 | 0.00 | 44 | 1013.0 |
| 20260502161515 | 18 | 96 | 14.5 | 27.4 | 0.00 | 0.00 | 0.00 | 44 | 1012.9 |
| 20260502151508 | 16 | 104 | 14.5 | 40.2 | 0.00 | 0.00 | 0.00 | 47 | 1012.9 |
| 20260502123045 | 10 | 86 | 12.9 | 17.7 | 0.00 | 0.00 | 0.00 | 61 | 1012.6 |
| 20260502121550 | 11 | 100 | 4.8 | 14.5 | 0.00 | 0.00 | 0.00 | 62 | 1012.7 |
| 20260502114543 | 11 | 108 | 9.7 | 17.7 | 0.00 | 0.00 | 0.00 | 61 | 1012.7 |
| 20260502113040 | 11 | 107 | 4.8 | 11.3 | 0.00 | 0.00 | 0.00 | 61 | 1012.7 |
| 20260502111541 | 11 | 111 | 8.0 | 14.5 | 0.00 | 0.00 | 0.00 | 60 | 1012.5 |
| 20260502110042 | 11 | 112 | 9.7 | 17.7 | 0.00 | 0.00 | 0.00 | 60 | 1012.5 |
| 20260502104542 | 11 | 110 | 6.4 | 14.5 | 0.00 | 0.00 | 0.00 | 62 | 1012.5 |
| 20260502103048 | 11 | 106 | 8.0 | 14.5 | 0.00 | 0.00 | 0.00 | 63 | 1012.6 |
| 20260502101543 | 10 | 90 | 9.7 | 14.5 | 0.00 | 0.00 | 0.00 | 65 | 1012.6 |
| 20260502091533 | 10 | 53 | 0.0 | 4.8 | 0.00 | 0.00 | 0.00 | 69 | 1012.6 |
| 20260502071518 | 11 | 50 | 0.0 | 0.0 | 0.00 | 0.00 | 0.00 | 68 | 1013.1 |